4XHSF LLHA-LLHZ
Flight info
| Callsign | 4XHSF |
|---|---|
| Flight time | 0h 31m |
| Altitude | 1200 |
| Route | GALIM DAROM HOTRM BOREN FRDIS SDTYM OLGAH PELEG VINGT SFAIM APOLN ARENA HTZUK KNTRY |
| Aircraft | DR40/L-S/L |
Departure
| Time | 2026-04-27 16:26 |
|---|---|
| Airport | Uri Michaeli Haifa International Airport (LLHA) |
Arrival
| Time | 2026-04-27 16:57 |
|---|---|
| Airport | Herzliya Airport (LLHZ) |
| Time | Latitude | Longitude | Altitude | Speed | Heading |
|---|---|---|---|---|---|
| 2026-04-27 16:20 | 32.81108 | 35.04135 | 18 ft | 0 kts | 340° |
| 2026-04-27 16:21 | 32.81152 | 35.04223 | 20 ft | 0 kts | 69° |
| 2026-04-27 16:22 | 32.80873 | 35.04430 | 21 ft | 42 kts | 157° |
| 2026-04-27 16:22 | 32.80621 | 35.04544 | 19 ft | 36 kts | 161° |
| 2026-04-27 16:23 | 32.80480 | 35.04589 | 15 ft | 16 kts | 68° |
| 2026-04-27 16:23 | 32.80528 | 35.04588 | 16 ft | 0 kts | 340° |
| 2026-04-27 16:23 | 32.80636 | 35.04546 | 19 ft | 35 kts | 339° |
| 2026-04-27 16:24 | 32.80921 | 35.04402 | 75 ft | 48 kts | 339° |
| 2026-04-27 16:24 | 32.81310 | 35.03851 | 246 ft | 57 kts | 292° |
| 2026-04-27 16:25 | 32.81417 | 35.02862 | 499 ft | 50 kts | 301° |
| 2026-04-27 16:25 | 32.81730 | 35.02018 | 577 ft | 60 kts | 306° |
| 2026-04-27 16:26 | 32.82042 | 35.01188 | 828 ft | 52 kts | 302° |
| 2026-04-27 16:26 | 32.82430 | 35.00346 | 1051 ft | 60 kts | 298° |
| 2026-04-27 16:27 | 32.82802 | 34.99514 | 1283 ft | 57 kts | 297° |
| 2026-04-27 16:27 | 32.83367 | 34.98159 | 1698 ft | 69 kts | 284° |
| 2026-04-27 16:28 | 32.83333 | 34.96987 | 2026 ft | 77 kts | 250° |
| 2026-04-27 16:28 | 32.82710 | 34.95793 | 2057 ft | 100 kts | 218° |
| 2026-04-27 16:29 | 32.80382 | 34.95312 | 2015 ft | 117 kts | 185° |
| 2026-04-27 16:30 | 32.78757 | 34.95318 | 1999 ft | 112 kts | 189° |
| 2026-04-27 16:30 | 32.77359 | 34.95243 | 1985 ft | 117 kts | 188° |
| 2026-04-27 16:31 | 32.75066 | 34.95713 | 2034 ft | 120 kts | 154° |
| 2026-04-27 16:31 | 32.73540 | 34.96228 | 2036 ft | 116 kts | 184° |
| 2026-04-27 16:32 | 32.71894 | 34.96093 | 1995 ft | 125 kts | 192° |
| 2026-04-27 16:32 | 32.71037 | 34.96128 | 2054 ft | 123 kts | 181° |
| 2026-04-27 16:33 | 32.69334 | 34.96292 | 2052 ft | 118 kts | 181° |
| 2026-04-27 16:33 | 32.68513 | 34.96303 | 2052 ft | 120 kts | 185° |
| 2026-04-27 16:33 | 32.67659 | 34.96287 | 1974 ft | 125 kts | 185° |
| 2026-04-27 16:33 | 32.66807 | 34.96360 | 2019 ft | 122 kts | 182° |
| 2026-04-27 16:34 | 32.65976 | 34.96290 | 2075 ft | 119 kts | 194° |
| 2026-04-27 16:34 | 32.65138 | 34.96204 | 2090 ft | 122 kts | 188° |
| 2026-04-27 16:34 | 32.64268 | 34.96137 | 2024 ft | 127 kts | 192° |
| 2026-04-27 16:34 | 32.63410 | 34.95997 | 2025 ft | 124 kts | 194° |
| 2026-04-27 16:35 | 32.62586 | 34.95798 | 2067 ft | 122 kts | 203° |
| 2026-04-27 16:35 | 32.61758 | 34.95565 | 2116 ft | 123 kts | 196° |
| 2026-04-27 16:35 | 32.60089 | 34.95099 | 2074 ft | 123 kts | 204° |
| 2026-04-27 16:36 | 32.59434 | 34.94510 | 2000 ft | 118 kts | 234° |
| 2026-04-27 16:36 | 32.58969 | 34.93708 | 1906 ft | 114 kts | 240° |
| 2026-04-27 16:36 | 32.58484 | 34.92987 | 1967 ft | 111 kts | 223° |
| 2026-04-27 16:36 | 32.57849 | 34.92425 | 1941 ft | 113 kts | 220° |
| 2026-04-27 16:37 | 32.57197 | 34.91909 | 1945 ft | 114 kts | 217° |
| 2026-04-27 16:37 | 32.56532 | 34.91412 | 1985 ft | 114 kts | 215° |
| 2026-04-27 16:37 | 32.55827 | 34.90928 | 1920 ft | 113 kts | 211° |
| 2026-04-27 16:37 | 32.55140 | 34.90506 | 1937 ft | 109 kts | 217° |
| 2026-04-27 16:38 | 32.54491 | 34.90035 | 1889 ft | 112 kts | 218° |
| 2026-04-27 16:38 | 32.53755 | 34.89716 | 1865 ft | 115 kts | 195° |
| 2026-04-27 16:38 | 32.52996 | 34.89565 | 1943 ft | 105 kts | 197° |
| 2026-04-27 16:38 | 32.52263 | 34.89409 | 1885 ft | 111 kts | 195° |
| 2026-04-27 16:39 | 32.51500 | 34.89209 | 1796 ft | 115 kts | 198° |
| 2026-04-27 16:39 | 32.50787 | 34.89003 | 1945 ft | 101 kts | 201° |
| 2026-04-27 16:39 | 32.50175 | 34.88671 | 2037 ft | 96 kts | 211° |
| 2026-04-27 16:39 | 32.49532 | 34.88309 | 1961 ft | 106 kts | 209° |
| 2026-04-27 16:40 | 32.48800 | 34.88054 | 1941 ft | 112 kts | 198° |
| 2026-04-27 16:40 | 32.48065 | 34.87844 | 2031 ft | 106 kts | 199° |
| 2026-04-27 16:40 | 32.47294 | 34.87642 | 1827 ft | 126 kts | 195° |
| 2026-04-27 16:40 | 32.46372 | 34.87567 | 1506 ft | 138 kts | 185° |
| 2026-04-27 16:41 | 32.45387 | 34.87604 | 1143 ft | 143 kts | 182° |
| 2026-04-27 16:41 | 32.44418 | 34.87506 | 976 ft | 136 kts | 193° |
| 2026-04-27 16:41 | 32.43504 | 34.87305 | 905 ft | 134 kts | 197° |
| 2026-04-27 16:41 | 32.42650 | 34.87054 | 770 ft | 131 kts | 198° |
| 2026-04-27 16:42 | 32.41811 | 34.86788 | 808 ft | 122 kts | 199° |
| 2026-04-27 16:42 | 32.40985 | 34.86502 | 753 ft | 124 kts | 199° |
| 2026-04-27 16:42 | 32.40163 | 34.86268 | 828 ft | 118 kts | 197° |
| 2026-04-27 16:42 | 32.39338 | 34.86070 | 822 ft | 123 kts | 194° |
| 2026-04-27 16:43 | 32.38514 | 34.85884 | 832 ft | 120 kts | 196° |
| 2026-04-27 16:43 | 32.37705 | 34.85676 | 824 ft | 124 kts | 194° |
| 2026-04-27 16:43 | 32.36846 | 34.85536 | 841 ft | 123 kts | 190° |
| 2026-04-27 16:43 | 32.36031 | 34.85300 | 826 ft | 121 kts | 200° |
| 2026-04-27 16:44 | 32.35232 | 34.85014 | 811 ft | 116 kts | 200° |
| 2026-04-27 16:44 | 32.34464 | 34.84804 | 880 ft | 114 kts | 191° |
| 2026-04-27 16:44 | 32.33672 | 34.84672 | 880 ft | 113 kts | 192° |
| 2026-04-27 16:44 | 32.32920 | 34.84452 | 865 ft | 111 kts | 200° |
| 2026-04-27 16:45 | 32.32156 | 34.84233 | 832 ft | 118 kts | 195° |
| 2026-04-27 16:45 | 32.31342 | 34.84066 | 842 ft | 118 kts | 192° |
| 2026-04-27 16:45 | 32.30552 | 34.83904 | 816 ft | 117 kts | 194° |
| 2026-04-27 16:45 | 32.29740 | 34.83721 | 763 ft | 119 kts | 196° |
| 2026-04-27 16:46 | 32.28947 | 34.83518 | 827 ft | 114 kts | 196° |
| 2026-04-27 16:46 | 32.28190 | 34.83333 | 888 ft | 113 kts | 193° |
| 2026-04-27 16:46 | 32.27391 | 34.83156 | 809 ft | 119 kts | 198° |
| 2026-04-27 16:46 | 32.26567 | 34.82914 | 728 ft | 125 kts | 195° |
| 2026-04-27 16:47 | 32.25752 | 34.82701 | 769 ft | 116 kts | 196° |
| 2026-04-27 16:47 | 32.24977 | 34.82459 | 766 ft | 114 kts | 203° |
| 2026-04-27 16:47 | 32.24229 | 34.82131 | 801 ft | 114 kts | 204° |
| 2026-04-27 16:47 | 32.23493 | 34.81808 | 839 ft | 108 kts | 204° |
| 2026-04-27 16:48 | 32.22766 | 34.81569 | 863 ft | 112 kts | 198° |
| 2026-04-27 16:48 | 32.21997 | 34.81324 | 857 ft | 115 kts | 204° |
| 2026-04-27 16:48 | 32.21249 | 34.80992 | 881 ft | 115 kts | 204° |
| 2026-04-27 16:49 | 32.19780 | 34.80360 | 898 ft | 118 kts | 204° |
| 2026-04-27 16:49 | 32.18982 | 34.80061 | 898 ft | 117 kts | 200° |
| 2026-04-27 16:49 | 32.18199 | 34.79774 | 868 ft | 120 kts | 198° |
| 2026-04-27 16:49 | 32.17374 | 34.79540 | 831 ft | 120 kts | 197° |
| 2026-04-27 16:50 | 32.16601 | 34.79296 | 900 ft | 112 kts | 199° |
| 2026-04-27 16:50 | 32.15862 | 34.79028 | 954 ft | 107 kts | 204° |
| 2026-04-27 16:50 | 32.15176 | 34.78732 | 1001 ft | 105 kts | 204° |
| 2026-04-27 16:50 | 32.14490 | 34.78412 | 1013 ft | 113 kts | 205° |
| 2026-04-27 16:51 | 32.13701 | 34.78073 | 878 ft | 125 kts | 202° |
| 2026-04-27 16:51 | 32.12860 | 34.77772 | 843 ft | 125 kts | 199° |
| 2026-04-27 16:51 | 32.12026 | 34.77499 | 815 ft | 123 kts | 197° |
| 2026-04-27 16:51 | 32.11174 | 34.77309 | 780 ft | 127 kts | 191° |
| 2026-04-27 16:52 | 32.10393 | 34.77587 | 826 ft | 125 kts | 118° |
| 2026-04-27 16:52 | 32.10139 | 34.78523 | 926 ft | 119 kts | 99° |
| 2026-04-27 16:52 | 32.10060 | 34.79485 | 941 ft | 118 kts | 90° |
| 2026-04-27 16:52 | 32.10100 | 34.80399 | 1111 ft | 97 kts | 47° |
| 2026-04-27 16:53 | 32.10682 | 34.80819 | 1104 ft | 106 kts | 16° |
| 2026-04-27 16:53 | 32.11412 | 34.81077 | 1145 ft | 106 kts | 1° |
| 2026-04-27 16:53 | 32.12213 | 34.81065 | 934 ft | 120 kts | 356° |
| 2026-04-27 16:53 | 32.13046 | 34.81049 | 816 ft | 117 kts | 358° |
| 2026-04-27 16:54 | 32.13840 | 34.81050 | 799 ft | 112 kts | 357° |
| 2026-04-27 16:54 | 32.14593 | 34.81142 | 854 ft | 104 kts | 10° |
| 2026-04-27 16:54 | 32.15246 | 34.81408 | 1026 ft | 95 kts | 19° |
| 2026-04-27 16:54 | 32.15853 | 34.81681 | 1106 ft | 94 kts | 14° |
| 2026-04-27 16:55 | 32.16473 | 34.81940 | 1223 ft | 91 kts | 17° |
| 2026-04-27 16:55 | 32.16904 | 34.82085 | 1182 ft | 102 kts | 11° |
| 2026-04-27 16:55 | 32.17836 | 34.82437 | 1147 ft | 110 kts | 15° |
| 2026-04-27 16:55 | 32.18566 | 34.82748 | 1162 ft | 111 kts | 15° |
| 2026-04-27 16:56 | 32.19252 | 34.83140 | 1215 ft | 112 kts | 52° |
| 2026-04-27 16:56 | 32.19141 | 34.84001 | 1050 ft | 112 kts | 114° |
| 2026-04-27 16:56 | 32.18755 | 34.84777 | 854 ft | 113 kts | 130° |
| 2026-04-27 16:56 | 32.18337 | 34.85163 | 696 ft | 113 kts | 162° |
| 2026-04-27 16:57 | 32.17645 | 34.85122 | 500 ft | 91 kts | 234° |
| 2026-04-27 16:57 | 32.17712 | 34.84526 | 307 ft | 67 kts | 294° |
| 2026-04-27 16:57 | 32.17862 | 34.84017 | 184 ft | 65 kts | 295° |
| 2026-04-27 16:57 | 32.17996 | 34.83570 | 109 ft | 45 kts | 292° |
| 2026-04-27 16:58 | 32.18058 | 34.83353 | 102 ft | 20 kts | 262° |
| 2026-04-27 16:58 | 32.18040 | 34.83327 | 104 ft | 0 kts | 185° |